createdAt,value
2023-02-24T00:01:44.462Z,12.13
2023-02-24T00:10:21.623Z,12.01
2023-02-24T00:14:26.757Z,11.93
2023-02-24T00:18:29.769Z,11.87
2023-02-24T00:22:32.998Z,11.82
2023-02-24T00:26:37.323Z,11.78
2023-02-24T00:30:40.602Z,11.73
2023-02-24T00:34:44.060Z,11.69
2023-02-24T00:38:47.688Z,11.62
2023-02-24T00:42:54.336Z,11.53
2023-02-24T00:46:58.214Z,11.39
2023-02-24T00:51:02.350Z,11.26
2023-02-24T00:55:15.488Z,11.12
2023-02-24T00:59:20.824Z,11.00
2023-02-24T01:03:26.178Z,10.91
2023-02-24T01:07:29.870Z,10.85
2023-02-24T01:12:04.180Z,10.82
2023-02-24T01:16:09.285Z,10.78
2023-02-24T01:20:18.347Z,10.75
2023-02-24T01:24:22.433Z,10.70
2023-02-24T01:28:25.559Z,10.66
2023-02-24T01:32:32.356Z,10.63
2023-02-24T01:36:35.656Z,10.60
2023-02-24T01:40:38.826Z,10.58
2023-02-24T01:45:17.114Z,10.62
2023-02-24T01:49:27.536Z,10.65
2023-02-24T01:53:32.977Z,10.67
2023-02-24T01:57:39.938Z,10.72
2023-02-24T02:01:46.320Z,10.73
2023-02-24T02:05:52.733Z,10.78
2023-02-24T02:09:56.774Z,10.81
2023-02-24T02:14:01.946Z,10.83
2023-02-24T02:18:13.699Z,10.86
2023-02-24T02:22:46.149Z,10.86
2023-02-24T02:27:21.258Z,10.87
2023-02-24T02:31:56.015Z,10.87
2023-02-24T02:36:08.646Z,10.89
2023-02-24T02:40:20.161Z,10.89
2023-02-24T02:44:34.059Z,10.88
2023-02-24T02:48:41.636Z,10.89
2023-02-24T02:52:56.156Z,10.88
2023-02-24T02:57:06.802Z,10.87
2023-02-24T03:01:12.701Z,10.85
2023-02-24T03:09:30.296Z,10.82
2023-02-24T03:13:41.824Z,10.83
2023-02-24T03:17:47.545Z,10.84
2023-02-24T03:22:00.233Z,10.85
2023-02-24T03:26:17.780Z,10.85
2023-02-24T03:30:26.977Z,10.85
2023-02-24T03:34:41.110Z,10.88
2023-02-24T03:38:49.530Z,10.92
2023-02-24T03:43:05.932Z,10.97
2023-02-24T03:47:10.399Z,10.99
2023-02-24T03:51:18.230Z,10.99
2023-02-24T03:55:33.328Z,10.97
2023-02-24T04:00:30.069Z,10.95
2023-02-24T04:04:40.112Z,10.90
2023-02-24T04:08:51.748Z,10.86
2023-02-24T04:13:02.287Z,10.78
2023-02-24T04:17:14.157Z,10.78
2023-02-24T04:21:19.074Z,10.73
2023-02-24T04:25:26.021Z,10.70
2023-02-24T04:29:35.867Z,10.65
2023-02-24T04:33:41.023Z,10.57
2023-02-24T04:37:45.333Z,10.43
2023-02-24T04:41:50.726Z,10.25
2023-02-24T04:45:53.708Z,10.06
2023-02-24T04:49:58.580Z,9.93
2023-02-24T04:54:02.176Z,9.84
2023-02-24T04:58:05.415Z,9.73
2023-02-24T05:02:08.837Z,9.63
2023-02-24T05:06:17.806Z,9.54
2023-02-24T05:10:21.676Z,9.47
2023-02-24T05:14:25.058Z,9.42
2023-02-24T05:18:32.283Z,9.42
2023-02-24T05:22:36.763Z,9.44
2023-02-24T05:26:42.222Z,9.40
2023-02-24T05:30:45.146Z,9.50
2023-02-24T05:34:48.761Z,9.51
2023-02-24T05:38:57.998Z,9.52
2023-02-24T05:43:04.804Z,9.55
2023-02-24T05:47:07.729Z,9.63
2023-02-24T05:51:13.182Z,9.74
2023-02-24T05:55:18.013Z,9.83
2023-02-24T05:59:21.695Z,9.90
2023-02-24T06:03:31.528Z,9.95
2023-02-24T06:07:34.938Z,9.99
2023-02-24T06:11:41.397Z,10.00
2023-02-24T06:15:50.873Z,10.05
2023-02-24T06:19:54.583Z,10.09
2023-02-24T06:23:59.282Z,10.10
2023-02-24T06:28:03.557Z,10.14
2023-02-24T06:32:09.118Z,10.19
2023-02-24T06:36:14.368Z,10.29
2023-02-24T06:40:18.328Z,10.39
2023-02-24T06:44:24.406Z,10.46
2023-02-24T06:48:28.710Z,10.55
2023-02-24T06:52:32.529Z,10.63
2023-02-24T06:56:38.913Z,10.79
2023-02-24T07:00:46.970Z,10.96
2023-02-24T07:04:49.847Z,11.10
2023-02-24T07:08:54.075Z,11.22
2023-02-24T07:12:57.437Z,11.31
2023-02-24T07:17:01.766Z,11.42
2023-02-24T07:21:42.282Z,11.55
2023-02-24T07:25:46.510Z,11.72
2023-02-24T07:29:52.930Z,11.92
2023-02-24T07:33:58.206Z,12.17
2023-02-24T07:38:05.594Z,12.42
2023-02-24T07:42:12.967Z,12.69
2023-02-24T07:46:19.711Z,13.03
2023-02-24T07:50:24.165Z,13.48
2023-02-24T07:54:30.644Z,13.98
2023-02-24T07:58:34.934Z,14.50
2023-02-24T08:02:39.366Z,14.94
2023-02-24T08:06:47.957Z,15.26
2023-02-24T08:10:53.765Z,15.46
2023-02-24T08:15:00.341Z,15.64
2023-02-24T08:19:04.057Z,15.87
2023-02-24T08:23:10.944Z,16.17
2023-02-24T08:27:14.463Z,16.45
2023-02-24T08:31:18.863Z,16.69
2023-02-24T08:35:23.739Z,16.84
2023-02-24T08:39:30.272Z,16.98
2023-02-24T08:43:40.343Z,17.17
2023-02-24T08:47:45.957Z,17.38
2023-02-24T08:51:52.998Z,17.55
2023-02-24T08:55:57.921Z,17.59
2023-02-24T09:00:00.772Z,17.32
2023-02-24T09:04:07.540Z,17.19
2023-02-24T09:08:10.492Z,17.10
2023-02-24T09:12:22.398Z,17.02
2023-02-24T09:16:26.781Z,17.03
2023-02-24T09:20:52.977Z,17.07
2023-02-24T09:25:16.243Z,17.13
2023-02-24T09:33:51.866Z,17.24
2023-02-24T09:37:57.029Z,17.32
2023-02-24T09:42:25.123Z,17.37
2023-02-24T09:46:28.238Z,17.38
2023-02-24T09:51:02.188Z,17.37
2023-02-24T09:55:25.283Z,17.39
2023-02-24T09:59:34.951Z,17.37
2023-02-24T10:03:48.328Z,17.37
2023-02-24T10:07:57.629Z,17.39
2023-02-24T10:12:05.996Z,17.45
2023-02-24T10:16:16.072Z,17.52
2023-02-24T10:20:31.479Z,17.60
2023-02-24T10:24:47.697Z,17.72
2023-02-24T10:28:58.800Z,17.82
2023-02-24T10:33:07.715Z,17.91
2023-02-24T10:37:27.685Z,17.97
2023-02-24T10:41:46.190Z,18.02
2023-02-24T10:45:49.605Z,17.96
2023-02-24T10:49:58.235Z,17.92
2023-02-24T10:54:34.686Z,17.89
2023-02-24T10:58:45.633Z,17.92
2023-02-24T11:03:07.261Z,18.03
2023-02-24T11:07:24.983Z,18.16
2023-02-24T11:11:58.473Z,18.22
2023-02-24T11:16:20.875Z,18.22
2023-02-24T11:20:46.443Z,18.20
2023-02-24T11:24:53.228Z,18.20
2023-02-24T11:29:13.737Z,18.22
2023-02-24T11:33:31.486Z,18.27
2023-02-24T11:37:42.847Z,18.29
2023-02-24T11:41:51.042Z,18.28
2023-02-24T11:46:01.433Z,18.28
2023-02-24T11:50:19.322Z,18.28
2023-02-24T11:54:24.121Z,18.29
2023-02-24T11:58:33.179Z,18.25
2023-02-24T12:02:47.205Z,18.14
2023-02-24T12:06:59.418Z,17.99
2023-02-24T12:11:07.276Z,17.84
2023-02-24T12:15:19.283Z,17.71
2023-02-24T12:19:30.779Z,17.56
2023-02-24T12:23:37.559Z,17.40
2023-02-24T12:27:53.141Z,17.19
2023-02-24T12:32:05.759Z,17.00
2023-02-24T12:36:22.182Z,16.81
2023-02-24T12:40:39.148Z,16.67
2023-02-24T12:44:51.688Z,16.58
2023-02-24T12:49:23.473Z,16.54
2023-02-24T12:53:34.407Z,16.51
2023-02-24T12:57:46.502Z,16.50
2023-02-24T13:02:01.602Z,16.46
2023-02-24T13:06:14.356Z,16.42
2023-02-24T13:10:31.661Z,16.38
2023-02-24T13:14:39.070Z,16.39
2023-02-24T13:18:43.422Z,16.40
2023-02-24T13:22:48.566Z,16.47
2023-02-24T13:26:52.097Z,16.48
2023-02-24T13:31:05.405Z,16.48
2023-02-24T13:35:33.504Z,16.42
2023-02-24T13:39:41.515Z,16.41
2023-02-24T13:43:55.639Z,16.46
2023-02-24T13:48:19.780Z,16.56
2023-02-24T13:52:37.225Z,16.71
2023-02-24T13:56:46.035Z,16.84
2023-02-24T14:01:04.426Z,16.93
2023-02-24T14:05:18.051Z,16.98
2023-02-24T14:09:27.193Z,17.11
2023-02-24T14:13:34.445Z,17.25
2023-02-24T14:17:39.212Z,17.34
2023-02-24T14:21:51.691Z,17.46
2023-02-24T14:25:57.339Z,17.50
2023-02-24T14:30:00.940Z,17.54
2023-02-24T14:34:09.141Z,17.54
2023-02-24T14:38:44.986Z,17.51
2023-02-24T14:42:49.696Z,17.47
2023-02-24T14:46:55.097Z,17.41
2023-02-24T14:51:03.446Z,17.31
2023-02-24T14:55:13.968Z,17.24
2023-02-24T14:59:30.736Z,17.23
2023-02-24T15:03:38.159Z,17.29
2023-02-24T15:07:44.873Z,17.36
2023-02-24T15:11:54.386Z,17.43
2023-02-24T15:15:58.223Z,17.41
2023-02-24T15:20:01.400Z,17.37
2023-02-24T15:24:06.679Z,17.27
2023-02-24T15:28:26.798Z,17.14
2023-02-24T15:32:44.204Z,16.96
2023-02-24T15:36:51.023Z,16.75
2023-02-24T15:41:04.399Z,16.58
2023-02-24T15:45:26.033Z,16.47
2023-02-24T15:49:38.302Z,16.32
2023-02-24T15:53:42.998Z,16.16
2023-02-24T15:57:47.492Z,16.01
2023-02-24T16:01:51.937Z,15.85
2023-02-24T16:05:57.891Z,15.70
2023-02-24T16:10:04.183Z,15.55
2023-02-24T16:14:07.284Z,15.37
2023-02-24T16:18:21.958Z,15.24
2023-02-24T16:22:27.830Z,15.09
2023-02-24T16:26:34.121Z,14.96
2023-02-24T16:30:37.227Z,14.84
2023-02-24T16:34:42.017Z,14.69
2023-02-24T16:38:51.077Z,14.57
2023-02-24T16:42:53.968Z,14.40
2023-02-24T16:46:57.834Z,14.28
2023-02-24T16:51:00.814Z,14.16
2023-02-24T16:55:06.180Z,14.05
2023-02-24T16:59:09.344Z,13.94
2023-02-24T17:03:19.388Z,13.84
2023-02-24T17:07:22.233Z,13.73
2023-02-24T17:11:27.848Z,13.68
2023-02-24T17:15:31.569Z,13.57
2023-02-24T17:19:34.795Z,13.45
2023-02-24T17:23:38.320Z,13.37
2023-02-24T17:27:44.167Z,13.28
2023-02-24T17:31:47.802Z,13.20
2023-02-24T17:35:51.127Z,13.13
2023-02-24T17:39:54.255Z,13.07
2023-02-24T17:43:58.588Z,13.00
2023-02-24T17:48:02.038Z,12.95
2023-02-24T17:52:06.344Z,12.92
2023-02-24T17:56:10.274Z,12.86
2023-02-24T18:00:16.235Z,12.80
2023-02-24T18:04:19.619Z,12.74
2023-02-24T18:08:23.421Z,12.68
2023-02-24T18:12:26.974Z,12.63
2023-02-24T18:16:31.732Z,12.59
2023-02-24T18:20:34.967Z,12.55
2023-02-24T18:24:42.337Z,12.52
2023-02-24T18:28:45.696Z,12.46
2023-02-24T18:32:51.964Z,12.41
2023-02-24T18:36:56.242Z,12.33
2023-02-24T18:41:00.770Z,12.30
2023-02-24T18:45:03.818Z,12.25
2023-02-24T18:49:09.937Z,12.17
2023-02-24T18:53:12.783Z,12.13
2023-02-24T18:57:15.901Z,12.13
2023-02-24T19:01:21.462Z,12.09
2023-02-24T19:05:37.741Z,12.07
2023-02-24T19:09:42.945Z,12.03
2023-02-24T19:13:47.632Z,12.05
2023-02-24T19:17:50.956Z,12.05
2023-02-24T19:21:55.744Z,12.03
2023-02-24T19:25:59.179Z,12.01
2023-02-24T19:30:02.493Z,11.94
2023-02-24T19:34:07.892Z,11.88
2023-02-24T19:38:14.956Z,11.89
2023-02-24T19:42:18.152Z,11.80
2023-02-24T19:46:21.573Z,11.75
2023-02-24T19:50:25.563Z,11.70
2023-02-24T19:54:30.947Z,11.65
2023-02-24T19:58:34.629Z,11.64
2023-02-24T20:02:38.545Z,11.51
2023-02-24T20:06:44.390Z,11.57
2023-02-24T20:10:48.686Z,11.47
2023-02-24T20:14:52.249Z,11.52
2023-02-24T20:18:56.519Z,11.50
2023-02-24T20:23:03.130Z,11.46
2023-02-24T20:27:08.436Z,11.43
2023-02-24T20:31:13.256Z,11.40
2023-02-24T20:35:16.674Z,11.39
2023-02-24T20:39:19.747Z,11.36
2023-02-24T20:43:24.418Z,11.31
2023-02-24T20:47:27.497Z,11.34
2023-02-24T20:51:31.942Z,11.31
2023-02-24T20:55:35.325Z,11.33
2023-02-24T20:59:49.235Z,11.25
2023-02-24T21:03:59.278Z,11.29
2023-02-24T21:08:02.236Z,11.27
2023-02-24T21:12:07.280Z,11.29
2023-02-24T21:16:13.362Z,11.31
2023-02-24T21:20:16.572Z,11.35
2023-02-24T21:24:19.549Z,11.39
2023-02-24T21:28:23.954Z,11.44
2023-02-24T21:32:29.997Z,11.49
2023-02-24T21:36:32.934Z,11.44
2023-02-24T21:40:37.198Z,11.47
2023-02-24T21:44:43.563Z,11.48
2023-02-24T21:48:48.997Z,11.46
2023-02-24T21:52:52.505Z,11.39
2023-02-24T21:56:55.442Z,11.31
2023-02-24T22:00:59.917Z,11.20
2023-02-24T22:05:04.271Z,11.09
2023-02-24T22:09:11.400Z,10.95
2023-02-24T22:13:14.352Z,10.84
2023-02-24T22:17:18.177Z,10.72
2023-02-24T22:21:24.951Z,10.59
2023-02-24T22:25:27.878Z,10.47
2023-02-24T22:29:31.216Z,10.38
2023-02-24T22:33:36.701Z,10.31
2023-02-24T22:37:41.423Z,10.27
2023-02-24T22:41:44.780Z,10.24
2023-02-24T22:45:58.011Z,10.22
2023-02-24T22:50:01.093Z,10.19
2023-02-24T22:54:06.856Z,10.17
2023-02-24T22:58:10.047Z,10.15
2023-02-24T23:02:13.252Z,10.10
2023-02-24T23:06:18.080Z,10.08
2023-02-24T23:10:22.716Z,10.06
2023-02-24T23:14:26.937Z,10.02
2023-02-24T23:18:30.079Z,9.97
2023-02-24T23:22:32.998Z,9.92
2023-02-24T23:26:41.181Z,9.88
2023-02-24T23:30:46.242Z,9.83
2023-02-24T23:34:49.425Z,9.80
2023-02-24T23:38:53.174Z,9.77
2023-02-24T23:42:57.559Z,9.76
2023-02-24T23:47:01.681Z,9.71
2023-02-24T23:51:06.002Z,9.66
2023-02-24T23:55:11.199Z,9.61
2023-02-24T23:59:16.655Z,9.55
